Time;durP1;ratioP1;P1;durP2;ratioP2;P2;SDS_P1;SDS_P2;PMS_P1;PMS_P2;Temp;Humidity;BMP_temperature;BMP_pressure;BME280_temperature;BME280_humidity;BME280_pressure;Samples;Min_cycle;Max_cycle;Signal;HPM_P1;HPM_P2
2022/02/15 00:01:01;;;;;;;6.30;6.00;;;;;;;7.34;82.14;96011.47;5088789;28;20541;-62
2022/02/15 00:03:27;;;;;;;6.57;6.27;;;;;;;7.41;81.95;96008.75;5072191;28;20410;-61
2022/02/15 00:05:52;;;;;;;6.93;6.53;;;;;;;7.38;81.85;96010.00;5077185;28;20438;-59
2022/02/15 00:08:18;;;;;;;6.93;6.63;;;;;;;7.39;82.29;96006.38;5092193;28;20423;-62
2022/02/15 00:10:45;;;;;;;7.47;7.07;;;;;;;7.30;82.30;96012.16;5091764;28;20472;-64
2022/02/15 00:13:12;;;;;;;7.37;7.07;;;;;;;7.23;83.07;96019.25;5077389;28;20421;-63
2022/02/15 00:15:37;;;;;;;7.63;7.32;;;;;;;7.37;82.14;96018.81;5083410;28;20400;-62
2022/02/15 00:18:03;;;;;;;8.90;8.40;;;;;;;7.34;82.59;96024.50;5071960;28;20464;-62
2022/02/15 00:20:28;;;;;;;8.30;7.80;;;;;;;7.36;82.52;96012.00;5071943;28;20391;-62
2022/02/15 00:22:54;;;;;;;9.13;8.73;;;;;;;7.33;82.54;96014.28;5071364;28;20931;-63
2022/02/15 00:25:20;;;;;;;8.35;7.95;;;;;;;7.25;82.95;96019.81;5072314;28;20462;-61
2022/02/15 00:27:47;;;;;;;7.32;6.93;;;;;;;7.28;82.90;96022.00;5091394;28;20408;-61
2022/02/15 00:30:12;;;;;;;7.40;6.97;;;;;;;7.28;82.49;96017.56;5091471;28;20394;-61
2022/02/15 00:32:38;;;;;;;8.20;7.80;;;;;;;7.30;82.70;96015.53;5091722;28;20390;-60
2022/02/15 00:35:04;;;;;;;8.70;8.20;;;;;;;7.28;82.38;96022.00;5088777;28;20544;-60
2022/02/15 00:37:29;;;;;;;8.73;8.23;;;;;;;7.21;82.67;96026.50;5071651;28;20486;-62
2022/02/15 00:39:54;;;;;;;7.80;7.40;;;;;;;7.08;83.59;96019.66;5071684;28;20478;-62
2022/02/15 00:42:22;;;;;;;8.37;7.97;;;;;;;7.11;82.81;96021.84;5071702;28;20411;-59
2022/02/15 00:44:48;;;;;;;7.97;7.57;;;;;;;6.99;83.97;96027.03;5070775;28;20415;-60
2022/02/15 00:47:15;;;;;;;7.27;6.87;;;;;;;7.03;83.86;96015.13;5087854;28;20439;-62
2022/02/15 00:49:41;;;;;;;7.03;6.70;;;;;;;7.13;83.35;96017.22;5091604;28;20390;-57
2022/02/15 00:52:06;;;;;;;5.97;5.67;;;;;;;7.05;83.63;96025.34;5080333;28;20892;-62
2022/02/15 00:54:32;;;;;;;5.80;5.50;;;;;;;7.09;83.79;96023.88;5071474;28;20478;-58
2022/02/15 00:56:57;;;;;;;14.25;13.45;;;;;;;7.23;82.68;96016.66;5074408;28;20482;-62
2022/02/15 00:59:23;;;;;;;19.87;18.77;;;;;;;7.12;83.07;96025.25;5071371;28;20817;-61
2022/02/15 01:01:48;;;;;;;21.87;20.67;;;;;;;6.84;84.39;96028.44;5071035;28;20545;-57
2022/02/15 01:04:13;;;;;;;23.03;21.83;;;;;;;6.80;84.95;96035.13;5079151;28;20401;-58
2022/02/15 01:06:39;;;;;;;25.40;24.00;;;;;;;6.83;84.82;96037.28;5074124;28;20411;-58
2022/02/15 01:09:04;;;;;;;25.37;24.03;;;;;;;6.99;84.34;96034.03;5070979;28;20400;-61
2022/02/15 01:11:31;;;;;;;20.80;19.70;;;;;;;6.99;83.92;96037.44;5068864;28;20399;-60
2022/02/15 01:13:56;;;;;;;19.58;18.55;;;;;;;6.74;85.65;96047.22;5107680;28;20392;-60
2022/02/15 01:16:21;;;;;;;18.17;17.27;;;;;;;7.12;83.88;96043.50;5125316;28;20801;-60
2022/02/15 01:18:47;;;;;;;15.50;14.60;;;;;;;7.19;83.34;96047.56;5130967;28;20393;-59
2022/02/15 01:21:13;;;;;;;15.50;14.70;;;;;;;7.01;83.79;96034.63;5131862;27;20425;-58
2022/02/15 01:23:38;;;;;;;13.27;12.57;;;;;;;6.76;84.59;96044.38;5132013;28;20739;-59
2022/02/15 01:26:05;;;;;;;14.02;13.32;;;;;;;6.76;85.02;96042.56;5123446;28;20397;-61
2022/02/15 01:28:34;;;;;;;12.27;11.68;;;;;;;6.91;84.22;96034.38;5116873;28;20392;-56
2022/02/15 01:31:00;;;;;;;13.52;12.82;;;;;;;7.09;83.09;96034.28;5113649;27;20886;-61
2022/02/15 01:33:25;;;;;;;13.07;12.30;;;;;;;6.92;83.77;96026.31;5125558;28;20399;-57
2022/02/15 01:35:51;;;;;;;12.97;12.20;;;;;;;6.83;84.30;96035.47;5112216;28;20380;-61
2022/02/15 01:38:16;;;;;;;14.60;13.90;;;;;;;6.89;83.81;96039.78;5112845;28;20801;-58
2022/02/15 01:40:41;;;;;;;17.13;16.20;;;;;;;6.69;84.32;96037.44;5128227;28;20382;-60
2022/02/15 01:43:07;;;;;;;16.40;15.60;;;;;;;6.69;84.69;96041.84;5131305;27;20406;-62
2022/02/15 01:45:32;;;;;;;16.38;15.48;;;;;;;6.59;85.11;96038.97;5130324;28;20485;-59
2022/02/15 01:47:58;;;;;;;16.43;15.60;;;;;;;6.55;85.57;96033.44;5131231;28;20785;-62
2022/02/15 01:50:23;;;;;;;16.05;15.15;;;;;;;6.65;84.82;96035.50;5127319;27;20388;-60
2022/02/15 01:52:49;;;;;;;15.77;14.87;;;;;;;6.50;85.71;96030.69;5115377;27;20400;-59
2022/02/15 01:55:15;;;;;;;16.77;15.87;;;;;;;6.34;86.16;96030.50;5115181;27;20932;-60
2022/02/15 01:57:42;;;;;;;16.67;15.77;;;;;;;6.24;86.88;96031.00;5115131;27;20721;-61
2022/02/15 02:00:11;;;;;;;16.60;15.60;;;;;;;6.49;85.91;96029.09;5118209;27;20879;-60
2022/02/15 02:02:36;;;;;;;17.10;16.20;;;;;;;6.47;85.94;96023.31;5126266;27;20410;-60
2022/02/15 02:07:46;;;;;;;16.08;15.23;;;;;;;6.40;86.33;96025.22;5133991;27;20397;-60
2022/02/15 02:10:12;;;;;;;16.33;15.43;;;;;;;6.54;85.42;96034.44;5130464;27;20404;-62
2022/02/15 02:12:38;;;;;;;14.33;13.53;;;;;;;6.31;86.63;96028.31;5082890;28;20426;-60
2022/02/15 02:15:21;;;;;;;15.87;14.97;;;;;;;6.23;86.71;96019.00;5094135;28;20412;-60
2022/02/15 02:17:47;;;;;;;16.80;15.90;;;;;;;6.35;86.01;96017.28;5103160;28;20449;-60
2022/02/15 02:20:13;;;;;;;16.67;15.77;;;;;;;6.46;85.65;96019.13;5105709;28;20786;-61
2022/02/15 02:22:39;;;;;;;14.75;13.95;;;;;;;6.16;86.98;96016.47;5092701;28;20394;-61
2022/02/15 02:25:06;;;;;;;14.00;13.25;;;;;;;6.35;86.36;96019.06;5094402;28;20757;-60
2022/02/15 02:27:33;;;;;;;13.23;12.52;;;;;;;6.32;86.42;96024.69;5094179;28;20408;-61
2022/02/15 02:29:59;;;;;;;13.38;12.68;;;;;;;6.29;86.37;96027.75;5095972;28;20394;-59
2022/02/15 02:32:28;;;;;;;12.25;11.55;;;;;;;6.13;87.15;96031.75;5114390;28;20394;-61
2022/02/15 02:34:55;;;;;;;13.43;12.73;;;;;;;5.96;87.69;96028.91;5112442;28;20392;-61
2022/02/15 02:37:22;;;;;;;15.18;14.27;;;;;;;6.17;86.71;96027.69;5094025;28;20870;-61
2022/02/15 02:39:49;;;;;;;14.98;14.07;;;;;;;6.19;86.34;96030.84;5093835;28;20870;-63
2022/02/15 02:42:17;;;;;;;13.30;12.50;;;;;;;6.08;87.20;96037.56;5113962;28;20404;-61
2022/02/15 02:44:43;;;;;;;15.23;14.45;;;;;;;6.08;86.99;96034.97;5097183;28;20405;-61
2022/02/15 02:47:08;;;;;;;18.00;17.10;;;;;;;6.14;87.01;96031.50;5094096;28;20401;-60
2022/02/15 02:49:34;;;;;;;16.67;15.77;;;;;;;6.37;85.59;96025.63;5094012;28;20847;-61
2022/02/15 02:52:00;;;;;;;11.25;10.65;;;;;;;6.36;85.75;96033.66;5078327;28;20833;-60
2022/02/15 02:54:26;;;;;;;12.75;12.05;;;;;;;6.01;87.11;96030.88;5113795;28;20422;-60
2022/02/15 02:56:52;;;;;;;13.27;12.57;;;;;;;5.97;87.49;96027.88;5112049;28;20389;-59
2022/02/15 02:59:20;;;;;;;12.73;12.00;;;;;;;6.02;86.99;96032.47;5091124;28;20924;-60
2022/02/15 03:01:45;;;;;;;13.82;13.02;;;;;;;6.12;86.56;96032.75;5101865;28;20404;-61
2022/02/15 03:04:11;;;;;;;13.63;12.90;;;;;;;5.98;87.82;96039.09;5104395;28;20424;-60
2022/02/15 03:06:36;;;;;;;13.13;12.43;;;;;;;5.85;88.09;96038.16;5105162;28;20501;-60
2022/02/15 03:09:03;;;;;;;13.50;12.80;;;;;;;5.97;87.49;96040.88;5104328;28;20411;-60
2022/02/15 03:11:29;;;;;;;12.43;11.73;;;;;;;6.12;86.95;96045.75;5094064;28;20921;-60
2022/02/15 03:13:54;;;;;;;12.50;11.80;;;;;;;6.04;87.21;96041.63;5073075;28;20388;-61
2022/02/15 03:16:23;;;;;;;11.23;10.63;;;;;;;6.00;87.34;96047.47;5072465;28;20823;-61
2022/02/15 03:18:48;;;;;;;11.23;10.63;;;;;;;5.98;87.77;96045.09;5072544;28;20383;-61
2022/02/15 03:21:14;;;;;;;9.73;9.00;;;;;;;5.97;87.91;96051.28;5073019;28;20540;-59
2022/02/15 03:23:40;;;;;;;9.53;9.03;;;;;;;5.97;87.52;96053.09;5072593;28;20894;-60
2022/02/15 03:26:06;;;;;;;8.80;8.30;;;;;;;6.20;86.15;96055.84;5072143;28;20436;-61
2022/02/15 03:28:32;;;;;;;8.70;8.20;;;;;;;6.35;85.08;96061.50;5072957;28;20522;-61
2022/02/15 03:30:57;;;;;;;8.53;8.03;;;;;;;6.25;85.92;96062.00;5072331;28;20431;-60
2022/02/15 03:33:23;;;;;;;7.95;7.53;;;;;;;6.17;86.23;96069.31;5072781;28;20391;-60
2022/02/15 03:35:48;;;;;;;7.47;6.97;;;;;;;6.23;85.76;96061.44;5072195;28;20441;-60
2022/02/15 03:38:13;;;;;;;9.20;8.60;;;;;;;6.25;85.75;96058.59;5072288;28;20391;-59
2022/02/15 03:43:23;;;;;;;9.33;8.77;;;;;;;6.21;85.90;96066.06;5072472;28;20795;-61
2022/02/15 03:45:49;;;;;;;10.07;9.47;;;;;;;6.19;85.90;96072.47;5072089;28;20407;-60
2022/02/15 03:48:15;;;;;;;10.43;9.73;;;;;;;6.08;85.84;96063.56;5072348;28;20415;-60
2022/02/15 03:50:40;;;;;;;10.20;9.63;;;;;;;6.14;86.31;96065.31;5071757;28;20442;-63
2022/02/15 03:53:06;;;;;;;8.90;8.30;;;;;;;6.15;85.99;96073.91;5072049;28;20395;-61
2022/02/15 03:55:31;;;;;;;9.27;8.77;;;;;;;6.52;83.71;96074.72;5072089;28;20471;-61
2022/02/15 03:57:57;;;;;;;7.83;7.33;;;;;;;6.44;84.31;96075.00;5071694;28;20417;-61
2022/02/15 04:00:22;;;;;;;8.60;8.00;;;;;;;6.31;84.96;96085.56;5071946;28;20403;-61
2022/02/15 04:02:48;;;;;;;7.13;6.72;;;;;;;6.27;84.49;96085.22;5071706;28;20415;-60
2022/02/15 04:05:13;;;;;;;8.30;7.70;;;;;;;6.15;85.43;96087.72;5071573;28;20411;-61
2022/02/15 04:07:39;;;;;;;7.47;7.07;;;;;;;6.29;84.71;96096.22;5071519;28;20395;-63
2022/02/15 04:10:05;;;;;;;7.72;7.32;;;;;;;6.50;83.82;96089.75;5063060;28;20439;-60
2022/02/15 04:12:30;;;;;;;7.40;6.90;;;;;;;6.25;84.51;96098.44;5068675;28;20432;-61
2022/02/15 04:14:55;;;;;;;8.03;7.43;;;;;;;6.23;85.09;96099.66;5071408;28;20399;-60
2022/02/15 04:17:21;;;;;;;8.10;7.60;;;;;;;6.19;84.98;96093.28;5071211;28;20432;-59
2022/02/15 04:19:47;;;;;;;7.20;6.70;;;;;;;6.46;83.80;96099.81;5071217;28;20471;-60
2022/02/15 04:22:12;;;;;;;7.43;6.93;;;;;;;6.25;84.70;96093.22;5053541;28;20445;-63
2022/02/15 04:24:38;;;;;;;7.10;6.60;;;;;;;6.26;84.57;96094.03;5071958;28;20396;-61
2022/02/15 04:27:04;;;;;;;8.77;8.17;;;;;;;6.17;84.80;96095.31;5071588;28;20856;-61
2022/02/15 04:29:29;;;;;;;9.05;8.45;;;;;;;6.34;83.97;96103.34;5071701;28;20398;-61
2022/02/15 04:31:55;;;;;;;7.80;7.20;;;;;;;6.58;82.43;96108.47;5071183;28;20403;-61
2022/02/15 04:34:20;;;;;;;8.00;7.50;;;;;;;6.42;82.97;96108.25;5053851;28;20408;-61
2022/02/15 04:36:46;;;;;;;8.73;8.18;;;;;;;6.45;82.54;96111.25;5071447;28;20456;-61
2022/02/15 04:39:14;;;;;;;7.57;7.07;;;;;;;6.51;82.13;96114.78;5071176;28;20383;-61
2022/02/15 04:41:40;;;;;;;7.03;6.60;;;;;;;6.37;82.96;96116.72;5071229;28;20395;-61
2022/02/15 04:44:06;;;;;;;6.82;6.40;;;;;;;6.54;82.38;96120.34;5071274;28;20399;-61
2022/02/15 04:46:32;;;;;;;7.53;6.93;;;;;;;6.49;81.69;96111.59;5071349;28;20753;-61
2022/02/15 04:48:59;;;;;;;6.63;6.22;;;;;;;6.61;81.64;96120.28;5071198;28;20521;-61
2022/02/15 04:51:24;;;;;;;6.60;6.20;;;;;;;6.54;81.06;96125.56;5070852;28;20391;-60
2022/02/15 04:53:50;;;;;;;6.60;6.20;;;;;;;6.30;82.49;96129.00;5071159;28;20430;-60
2022/02/15 04:56:15;;;;;;;6.78;6.38;;;;;;;6.58;81.85;96129.31;5071246;28;20390;-61
2022/02/15 04:58:41;;;;;;;6.87;6.40;;;;;;;6.40;82.30;96123.31;5070901;28;20425;-60
2022/02/15 05:01:06;;;;;;;7.43;6.93;;;;;;;6.61;81.84;96122.88;5071173;28;20399;-60
2022/02/15 05:03:33;;;;;;;8.30;7.60;;;;;;;6.56;81.62;96122.75;5071057;28;20407;-61
2022/02/15 05:05:58;;;;;;;6.88;6.47;;;;;;;6.73;81.19;96128.97;5070595;28;20423;-60
2022/02/15 05:08:24;;;;;;;7.03;6.32;;;;;;;6.71;81.10;96128.38;5070880;28;20776;-61
2022/02/15 05:10:49;;;;;;;6.77;6.27;;;;;;;6.81;80.82;96130.44;5070511;28;20407;-62
2022/02/15 05:13:15;;;;;;;7.10;6.27;;;;;;;6.45;81.93;96136.47;5085519;28;20430;-61
2022/02/15 05:15:40;;;;;;;5.90;5.50;;;;;;;6.59;81.58;96140.50;5091234;28;20390;-60
2022/02/15 05:18:06;;;;;;;7.00;6.30;;;;;;;6.73;80.88;96141.97;5110936;28;20385;-61
2022/02/15 05:20:33;;;;;;;6.63;6.25;;;;;;;6.66;81.34;96141.25;5095977;28;20466;-60
2022/02/15 05:22:58;;;;;;;7.03;6.60;;;;;;;6.47;82.25;96143.03;5109896;28;20924;-61
2022/02/15 05:25:24;;;;;;;6.70;6.30;;;;;;;6.58;82.00;96139.72;5114937;28;20395;-60
2022/02/15 05:27:51;;;;;;;5.90;5.50;;;;;;;6.37;82.99;96142.75;5115482;28;20737;-60
2022/02/15 05:30:17;;;;;;;6.50;6.07;;;;;;;6.59;82.02;96153.53;5102521;28;20397;-61
2022/02/15 05:32:42;;;;;;;6.90;6.50;;;;;;;6.70;81.59;96152.81;5095343;28;20394;-60
2022/02/15 05:35:09;;;;;;;7.43;6.93;;;;;;;6.59;82.15;96149.13;5095224;28;20390;-61
2022/02/15 05:37:35;;;;;;;7.50;7.00;;;;;;;6.62;81.93;96155.72;5095205;28;20401;-59
2022/02/15 05:40:02;;;;;;;6.95;6.55;;;;;;;6.62;82.08;96151.31;5105920;28;20392;-60
2022/02/15 05:42:28;;;;;;;7.45;6.93;;;;;;;6.48;82.57;96156.84;5115125;28;20764;-61
2022/02/15 05:44:53;;;;;;;7.25;6.85;;;;;;;6.50;82.95;96166.06;5114802;28;20403;-60
2022/02/15 05:47:19;;;;;;;6.90;6.40;;;;;;;6.46;83.08;96169.31;5110581;28;20858;-59
2022/02/15 05:52:28;;;;;;;6.95;6.45;;;;;;;6.50;83.14;96168.66;5098160;28;20947;-60
2022/02/15 05:54:54;;;;;;;7.20;6.80;;;;;;;6.56;82.90;96164.41;5114198;28;20392;-60
2022/02/15 05:57:19;;;;;;;7.40;6.90;;;;;;;6.66;82.31;96165.47;5114746;28;20569;-58
2022/02/15 05:59:44;;;;;;;7.90;7.30;;;;;;;6.46;82.72;96164.09;5105108;28;20405;-62
2022/02/15 06:02:10;;;;;;;7.87;7.33;;;;;;;6.73;82.15;96170.63;5099127;28;20504;-62
2022/02/15 06:04:36;;;;;;;7.03;6.63;;;;;;;6.56;82.92;96169.59;5094530;28;20744;-62
2022/02/15 06:07:02;;;;;;;6.93;6.50;;;;;;;6.57;82.59;96177.19;5094458;28;21835;-61
2022/02/15 06:09:27;;;;;;;7.70;7.20;;;;;;;6.31;83.40;96168.84;5100675;28;20447;-61
2022/02/15 06:11:52;;;;;;;7.70;7.20;;;;;;;6.68;82.18;96176.47;5096764;28;20437;-62
2022/02/15 06:14:18;;;;;;;8.87;8.27;;;;;;;6.74;81.80;96187.84;5049065;28;20446;-62
2022/02/15 06:16:43;;;;;;;8.73;8.15;;;;;;;6.41;83.12;96187.38;5064702;28;20385;-62
2022/02/15 06:19:08;;;;;;;8.40;7.90;;;;;;;6.38;83.25;96199.00;5057395;28;20391;-61
2022/02/15 06:21:34;;;;;;;9.38;8.77;;;;;;;6.62;82.58;96195.56;5058242;28;20397;-58
2022/02/15 06:24:01;;;;;;;8.20;7.70;;;;;;;6.66;82.19;96199.31;5053797;28;20480;-59
2022/02/15 06:26:27;;;;;;;9.30;8.70;;;;;;;6.36;83.26;96202.81;5055053;28;20445;-60
2022/02/15 06:28:52;;;;;;;10.93;10.37;;;;;;;6.39;83.68;96207.59;5066259;28;20891;-59
2022/02/15 06:31:17;;;;;;;8.70;8.20;;;;;;;6.51;84.53;96218.91;5054136;28;20479;-58
2022/02/15 06:33:43;;;;;;;11.90;11.20;;;;;;;6.68;82.31;96215.53;5053856;28;20755;-60
2022/02/15 06:36:09;;;;;;;13.73;12.93;;;;;;;6.45;83.51;96227.56;5054816;28;20565;-61
2022/02/15 06:38:35;;;;;;;13.02;12.25;;;;;;;6.56;83.21;96219.06;5053736;28;20412;-61
2022/02/15 06:41:01;;;;;;;9.98;9.38;;;;;;;6.66;82.52;96222.75;5071313;28;20405;-61
2022/02/15 06:43:26;;;;;;;8.33;7.73;;;;;;;6.61;82.20;96237.44;5073014;28;20478;-61
2022/02/15 06:45:52;;;;;;;8.70;8.20;;;;;;;6.50;83.76;96235.53;5073140;28;20403;-61
2022/02/15 06:48:17;;;;;;;10.13;9.53;;;;;;;6.38;85.39;96232.03;5073539;28;20395;-60
2022/02/15 06:50:43;;;;;;;11.60;10.90;;;;;;;6.57;85.39;96239.69;5063086;28;20914;-63
2022/02/15 06:53:08;;;;;;;10.75;10.05;;;;;;;6.59;84.95;96240.25;5053379;28;20411;-61
2022/02/15 06:55:33;;;;;;;12.00;11.30;;;;;;;6.54;85.45;96244.50;5061399;28;20880;-61
2022/02/15 06:57:59;;;;;;;13.60;12.80;;;;;;;6.36;86.79;96245.25;5072541;28;20431;-60
2022/02/15 07:00:24;;;;;;;11.70;11.10;;;;;;;6.28;87.58;96248.13;5058814;28;20515;-59
2022/02/15 07:02:50;;;;;;;11.53;10.83;;;;;;;6.41;87.13;96260.25;5061350;28;20892;-58
2022/02/15 07:05:15;;;;;;;14.93;13.97;;;;;;;6.37;87.38;96256.47;5070413;28;20403;-59
2022/02/15 07:07:40;;;;;;;15.67;14.67;;;;;;;6.45;86.93;96264.81;5053029;28;20405;-59
2022/02/15 07:10:08;;;;;;;14.80;14.00;;;;;;;6.49;87.45;96270.38;5053082;28;20893;-60
2022/02/15 07:12:34;;;;;;;18.83;17.73;;;;;;;6.39;88.73;96270.88;5079130;28;20471;-60
2022/02/15 07:14:59;;;;;;;19.10;18.00;;;;;;;6.43;88.38;96279.84;5094850;28;20814;-62
2022/02/15 07:17:28;;;;;;;21.60;20.30;;;;;;;6.44;88.81;96289.25;5107423;28;20384;-60
2022/02/15 07:20:02;;;;;;;24.55;22.95;;;;;;;6.51;89.57;96286.59;5111280;28;20446;-60
2022/02/15 07:22:28;;;;;;;11.50;10.70;;;;;;;6.29;92.62;96286.16;5093388;28;20464;-60
2022/02/15 07:24:54;;;;;;;13.43;12.63;;;;;;;6.41;91.99;96292.25;5093003;28;20398;-58
2022/02/15 07:27:19;;;;;;;16.33;15.33;;;;;;;6.45;92.71;96290.84;5105650;28;20396;-55
2022/02/15 07:29:44;;;;;;;16.53;15.53;;;;;;;6.37;92.46;96298.09;5112484;28;20437;-59
2022/02/15 07:32:10;;;;;;;15.80;15.00;;;;;;;6.30;92.88;96302.59;5100694;28;20401;-57
2022/02/15 07:34:36;;;;;;;16.80;15.90;;;;;;;6.15;94.83;96305.47;5108533;28;20400;-62
2022/02/15 07:37:36;;;;;;;22.57;21.33;;;;;;;6.03;95.17;96314.94;5102284;28;20393;-69
2022/02/15 07:40:06;;;;;;;22.23;21.02;;;;;;;5.79;97.67;96322.47;5069196;28;20404;-64
2022/02/15 07:42:32;;;;;;;18.25;17.05;;;;;;;6.00;97.07;96325.78;5111301;28;20427;-58
2022/02/15 07:44:57;;;;;;;20.67;19.57;;;;;;;6.10;96.69;96324.31;5110856;28;20912;-52
2022/02/15 07:47:23;;;;;;;21.83;20.70;;;;;;;6.31;95.21;96322.38;5108280;28;20448;-52
2022/02/15 07:49:49;;;;;;;23.17;21.77;;;;;;;6.30;95.84;96331.97;5092466;28;20382;-52
2022/02/15 07:52:14;;;;;;;26.40;24.80;;;;;;;6.40;95.31;96334.94;5103316;28;20395;-52
2022/02/15 07:54:40;;;;;;;23.47;22.13;;;;;;;6.67;93.96;96333.72;5112614;28;20418;-55
2022/02/15 07:57:06;;;;;;;20.17;19.08;;;;;;;6.79;91.43;96336.44;5096290;28;20455;-54
2022/02/15 07:59:31;;;;;;;19.05;18.05;;;;;;;6.53;93.55;96347.03;5108357;28;20884;-58
2022/02/15 08:01:57;;;;;;;17.20;16.20;;;;;;;6.33;93.83;96349.78;5111805;28;20407;-56
2022/02/15 08:04:22;;;;;;;19.27;18.17;;;;;;;6.26;95.10;96351.63;5110457;28;20407;-54
2022/02/15 08:06:52;;;;;;;16.27;15.27;;;;;;;6.62;92.74;96351.78;5077188;28;20406;-57
2022/02/15 08:09:19;;;;;;;16.08;15.13;;;;;;;6.67;92.22;96346.75;5073806;28;20406;-58
2022/02/15 08:11:45;;;;;;;15.77;14.75;;;;;;;6.64;92.60;96352.38;5093547;28;20603;-55
2022/02/15 08:14:11;;;;;;;17.13;16.13;;;;;;;6.61;92.62;96358.00;5100416;28;21194;-57
2022/02/15 08:16:37;;;;;;;14.60;13.73;;;;;;;6.96;90.80;96349.72;5105853;28;20427;-57
2022/02/15 08:19:03;;;;;;;13.75;12.95;;;;;;;6.81;91.34;96352.63;5094292;28;20412;-57
2022/02/15 08:21:28;;;;;;;12.67;11.97;;;;;;;6.67;90.96;96358.97;5094465;28;20754;-59
2022/02/15 08:23:54;;;;;;;13.63;12.77;;;;;;;7.04;89.23;96354.63;5097831;28;20417;-61
2022/02/15 08:26:20;;;;;;;14.10;13.20;;;;;;;6.76;90.48;96359.50;5111434;28;20445;-55
2022/02/15 08:28:46;;;;;;;14.50;13.70;;;;;;;6.67;91.45;96364.97;5103461;28;20389;-53
2022/02/15 08:31:12;;;;;;;13.90;13.07;;;;;;;6.81;91.12;96368.25;5094102;28;20398;-60
2022/02/15 08:33:38;;;;;;;17.33;16.33;;;;;;;6.85;90.76;96368.66;5111761;28;20392;-59
2022/02/15 08:36:04;;;;;;;15.75;14.85;;;;;;;7.03;88.38;96361.66;5112064;28;20391;-58
2022/02/15 08:38:33;;;;;;;16.75;15.85;;;;;;;6.81;89.75;96364.84;5091505;28;20389;-56
2022/02/15 08:41:00;;;;;;;17.63;16.63;;;;;;;7.10;89.38;96365.00;5091970;28;20465;-58
2022/02/15 08:43:26;;;;;;;20.23;19.02;;;;;;;7.32;87.34;96368.00;5096513;28;20833;-57
2022/02/15 08:45:51;;;;;;;26.85;25.25;;;;;;;7.27;87.78;96367.06;5098814;28;20406;-54
2022/02/15 08:48:17;;;;;;;29.27;27.67;;;;;;;7.64;84.19;96368.66;5108723;28;20543;-58
2022/02/15 08:50:42;;;;;;;29.30;27.80;;;;;;;7.71;83.29;96366.78;5077175;28;20531;-57
2022/02/15 08:53:08;;;;;;;29.70;28.10;;;;;;;7.43;83.51;96375.09;5108694;28;20400;-54
2022/02/15 08:55:33;;;;;;;29.37;27.80;;;;;;;7.36;84.55;96379.56;5111623;28;20473;-59
2022/02/15 08:58:01;;;;;;;29.27;27.67;;;;;;;7.29;85.02;96385.88;5096174;28;20389;-56
2022/02/15 09:00:26;;;;;;;30.48;28.88;;;;;;;7.43;84.43;96388.13;5099363;28;20520;-57
2022/02/15 09:02:52;;;;;;;27.77;26.20;;;;;;;7.39;83.79;96392.19;5103801;28;20831;-58
2022/02/15 09:05:17;;;;;;;27.30;25.87;;;;;;;7.08;85.48;96398.28;5091423;28;20493;-58
2022/02/15 09:07:43;;;;;;;28.85;27.35;;;;;;;7.09;85.17;96405.09;5103739;28;20410;-57
2022/02/15 09:10:09;;;;;;;28.83;27.13;;;;;;;7.39;84.29;96407.03;5111564;28;20406;-58
2022/02/15 09:12:34;;;;;;;27.77;26.38;;;;;;;7.55;83.28;96411.69;5097874;28;20448;-58
2022/02/15 09:15:00;;;;;;;30.97;29.27;;;;;;;7.82;82.46;96410.38;5108481;28;20722;-58
2022/02/15 09:17:26;;;;;;;31.20;29.50;;;;;;;7.91;81.99;96403.84;5091696;28;20389;-55
2022/02/15 09:19:52;;;;;;;26.52;25.08;;;;;;;8.25;79.84;96420.69;5090923;28;20481;-58
2022/02/15 09:22:17;;;;;;;28.57;27.07;;;;;;;8.07;80.83;96427.78;5091129;28;20476;-59
2022/02/15 09:24:44;;;;;;;28.13;26.52;;;;;;;7.96;81.71;96418.06;5097117;28;20466;-58
2022/02/15 09:27:10;;;;;;;24.88;23.55;;;;;;;8.11;80.31;96410.66;5098831;28;20393;-58
2022/02/15 09:29:35;;;;;;;27.03;25.63;;;;;;;8.02;79.91;96419.81;5090851;28;20394;-59
2022/02/15 09:32:02;;;;;;;23.10;21.90;;;;;;;7.94;79.88;96416.47;5099241;28;20878;-55
2022/02/15 09:34:27;;;;;;;23.92;22.73;;;;;;;7.94;78.14;96407.84;5091215;28;20398;-57
2022/02/15 09:36:53;;;;;;;26.17;24.77;;;;;;;7.85;79.66;96411.78;5095557;28;20395;-54
2022/02/15 09:39:19;;;;;;;23.52;22.33;;;;;;;7.84;78.18;96410.19;5110855;28;20384;-55
2022/02/15 09:41:45;;;;;;;23.83;22.53;;;;;;;7.79;78.16;96420.47;5099388;28;20485;-58
2022/02/15 09:44:11;;;;;;;20.70;19.60;;;;;;;7.81;78.50;96428.84;5091217;28;20402;-57
2022/02/15 09:46:36;;;;;;;20.97;19.87;;;;;;;8.33;76.63;96427.47;5095860;28;20959;-56
2022/02/15 09:49:02;;;;;;;28.53;27.03;;;;;;;8.08;75.57;96421.53;5093903;28;20497;-56
2022/02/15 09:51:28;;;;;;;22.73;21.42;;;;;;;8.13;75.13;96414.66;5108618;28;20896;-58
2022/02/15 09:53:54;;;;;;;21.35;20.17;;;;;;;7.41;76.36;96416.22;5091083;28;20904;-58
2022/02/15 09:56:20;;;;;;;19.70;18.70;;;;;;;7.59;76.21;96423.28;5107599;28;20388;-57
2022/02/15 09:58:46;;;;;;;19.70;18.70;;;;;;;7.63;77.17;96431.47;5098452;28;20470;-58
2022/02/15 10:01:13;;;;;;;19.43;18.43;;;;;;;7.66;76.43;96429.22;5105323;28;20932;-56
2022/02/15 10:03:58;;;;;;;21.30;20.20;;;;;;;7.88;76.17;96440.03;5099581;28;20404;-58
2022/02/15 10:06:31;;;;;;;26.13;24.73;;;;;;;8.25;75.02;96438.97;5110758;28;20946;-55
2022/02/15 10:08:59;;;;;;;24.08;22.77;;;;;;;8.53;73.91;96446.28;5110969;28;20415;-58
2022/02/15 10:11:40;;;;;;;21.92;20.73;;;;;;;8.40;73.64;96438.63;5101314;28;20405;-58
2022/02/15 10:14:06;;;;;;;24.67;23.38;;;;;;;8.66;72.59;96440.06;5110473;28;20456;-58
2022/02/15 10:16:32;;;;;;;33.90;32.10;;;;;;;8.67;71.15;96449.50;5062300;28;20467;-57
2022/02/15 10:18:58;;;;;;;35.88;33.90;;;;;;;8.66;71.01;96453.13;5104851;28;20394;-57
2022/02/15 10:21:28;;;;;;;35.15;33.25;;;;;;;8.69;70.46;96457.94;5103262;28;20625;-58
2022/02/15 10:23:56;;;;;;;33.22;31.42;;;;;;;8.97;69.29;96462.56;5096930;28;20730;-58
2022/02/15 10:26:22;;;;;;;29.52;27.92;;;;;;;8.94;68.32;96457.75;5094160;28;20405;-58
2022/02/15 10:28:48;;;;;;;21.48;20.27;;;;;;;9.07;67.21;96471.44;5093614;28;20396;-58
2022/02/15 10:31:15;;;;;;;20.15;19.13;;;;;;;9.01;67.05;96469.72;5095511;28;20397;-57
2022/02/15 10:33:45;;;;;;;21.08;19.98;;;;;;;9.14;67.63;96471.31;5094135;28;20405;-58
2022/02/15 10:36:15;;;;;;;21.60;20.40;;;;;;;9.00;66.99;96478.56;5094270;28;20465;-58
2022/02/15 10:38:46;;;;;;;16.10;15.25;;;;;;;8.70;65.91;96475.19;5095097;28;20443;-57
2022/02/15 10:41:13;;;;;;;15.13;14.27;;;;;;;8.55;66.11;96467.75;5108477;28;20935;-59
2022/02/15 10:43:50;;;;;;;16.45;15.45;;;;;;;8.64;66.12;96469.03;5102978;28;20404;-57
2022/02/15 10:46:19;;;;;;;14.27;13.48;;;;;;;8.65;65.29;96481.06;5113931;28;20403;-58
2022/02/15 10:48:46;;;;;;;13.85;13.15;;;;;;;8.43;65.98;96471.31;5101504;28;20850;-57
2022/02/15 10:51:13;;;;;;;17.33;16.42;;;;;;;8.39;65.13;96470.19;5102995;28;20384;-58
2022/02/15 10:53:39;;;;;;;15.38;14.57;;;;;;;8.32;64.59;96480.69;5094675;28;20801;-58
2022/02/15 10:56:06;;;;;;;15.40;14.60;;;;;;;8.22;64.13;96486.41;5093789;28;20397;-56
2022/02/15 10:58:33;;;;;;;12.07;11.40;;;;;;;8.36;64.35;96478.47;5093517;28;20412;-58
2022/02/15 11:01:01;;;;;;;9.60;9.10;;;;;;;8.50;64.28;96474.66;5108637;28;20872;-59
2022/02/15 11:03:32;;;;;;;12.18;11.40;;;;;;;8.64;63.87;96489.13;5094858;28;20406;-58
2022/02/15 11:05:58;;;;;;;11.55;10.88;;;;;;;8.52;64.50;96493.53;5096536;28;20416;-58
2022/02/15 11:08:25;;;;;;;11.43;10.82;;;;;;;8.64;63.26;96487.31;5112723;28;20442;-59
2022/02/15 11:13:41;;;;;;;10.02;9.52;;;;;;;8.33;62.78;96485.72;5091122;28;20460;-59
2022/02/15 11:16:18;;;;;;;10.20;9.60;;;;;;;8.44;62.21;96488.59;5095726;28;20481;-56
2022/02/15 11:18:45;;;;;;;9.38;8.95;;;;;;;8.29;62.83;96484.53;5110651;28;20380;-57
2022/02/15 11:21:30;;;;;;;8.20;7.80;;;;;;;8.26;62.60;96479.72;5092965;28;20504;-59
2022/02/15 11:24:02;;;;;;;9.70;9.05;;;;;;;8.25;62.00;96499.03;5098893;28;20424;-59
2022/02/15 11:26:33;;;;;;;8.93;8.52;;;;;;;8.19;61.61;96492.06;5111711;28;20896;-59
2022/02/15 11:28:59;;;;;;;9.35;8.85;;;;;;;8.32;61.39;96489.34;5113328;28;20404;-59
2022/02/15 11:31:26;;;;;;;8.68;8.18;;;;;;;8.26;61.36;96499.81;5113270;28;20441;-57
2022/02/15 11:33:54;;;;;;;7.57;7.28;;;;;;;8.09;62.47;96493.59;5107512;28;20382;-58
2022/02/15 11:36:23;;;;;;;8.60;8.20;;;;;;;8.29;62.63;96491.56;5106951;28;20433;-59
2022/02/15 11:39:00;;;;;;;8.82;8.32;;;;;;;8.49;61.32;96502.59;5092832;28;20378;-59